Time;durP1;ratioP1;P1;durP2;ratioP2;P2;SDS_P1;SDS_P2;PMS_P1;PMS_P2;Temp;Humidity;BMP_temperature;BMP_pressure;BME280_temperature;BME280_humidity;BME280_pressure;Samples;Min_cycle;Max_cycle;Signal;HPM_P1;HPM_P2
2021/09/22 00:00:27;;;;;;;2.92;1.70;;;17.00;69.80;;;;;;20728990;28;20079;-78
2021/09/22 00:10:29;;;;;;;2.33;1.45;;;17.00;69.80;;;;;;20710630;28;20125;-78
2021/09/22 00:20:30;;;;;;;3.17;1.50;;;17.00;69.90;;;;;;20742616;28;20072;-79
2021/09/22 00:30:32;;;;;;;3.03;1.60;;;16.90;69.90;;;;;;20754421;28;20037;-79
2021/09/22 00:40:41;;;;;;;5.80;1.67;;;16.90;69.90;;;;;;20753354;28;20065;-80
2021/09/22 00:50:42;;;;;;;3.72;1.85;;;16.90;69.90;;;;;;20752068;28;20041;-78
2021/09/22 01:00:43;;;;;;;4.57;1.50;;;17.00;70.00;;;;;;20735650;28;20088;-79
2021/09/22 01:10:44;;;;;;;2.92;1.60;;;17.00;70.10;;;;;;20767889;28;20121;-78
2021/09/22 01:20:52;;;;;;;2.20;1.40;;;17.00;70.10;;;;;;20753402;28;20165;-79
2021/09/22 01:30:54;;;;;;;4.30;1.88;;;16.90;70.00;;;;;;20734748;28;20164;-79
2021/09/22 01:41:01;;;;;;;3.30;1.73;;;17.00;70.20;;;;;;20747000;28;20044;-79
2021/09/22 01:51:05;;;;;;;;;;;17.00;70.20;;;;;;20722668;28;20053;-79
2021/09/22 02:01:13;;;;;;;2.83;1.65;;;16.90;70.10;;;;;;20753800;28;20374;-79
2021/09/22 02:11:44;;;;;;;3.42;1.50;;;17.00;70.20;;;;;;20744022;28;20100;-79
2021/09/22 02:21:47;;;;;;;3.15;1.70;;;16.90;70.30;;;;;;20736066;28;20046;-79
2021/09/22 02:31:48;;;;;;;2.58;1.30;;;16.90;70.30;;;;;;20718917;28;20042;-79
2021/09/22 02:41:57;;;;;;;2.60;1.25;;;17.00;70.40;;;;;;20734891;28;20038;-79
2021/09/22 02:52:00;;;;;;;2.58;1.58;;;17.00;70.40;;;;;;20716171;28;20038;-79
2021/09/22 03:02:03;;;;;;;3.15;1.70;;;17.00;70.40;;;;;;20732772;28;20480;-79
2021/09/22 03:12:05;;;;;;;3.20;1.90;;;17.00;70.40;;;;;;20747543;28;20675;-79
2021/09/22 03:22:06;;;;;;;3.45;1.95;;;16.90;70.40;;;;;;20715110;28;20156;-79
2021/09/22 03:32:29;;;;;;;2.13;1.40;;;16.90;70.40;;;;;;20746159;28;20033;-80
2021/09/22 03:42:31;;;;;;;4.00;1.75;;;16.90;70.40;;;;;;20729278;28;20034;-79
2021/09/22 03:52:32;;;;;;;2.75;1.60;;;16.90;70.40;;;;;;20728950;28;20038;-79
2021/09/22 04:02:33;;;;;;;3.47;1.98;;;16.90;70.50;;;;;;20727889;28;20124;-81
2021/09/22 04:12:36;;;;;;;2.92;1.77;;;16.90;70.40;;;;;;20730496;28;20102;-79
2021/09/22 04:22:43;;;;;;;2.22;1.30;;;16.90;70.50;;;;;;20714749;28;20396;-78
2021/09/22 04:32:44;;;;;;;2.58;1.52;;;16.90;70.50;;;;;;20726922;28;20037;-77
2021/09/22 04:43:06;;;;;;;3.05;1.90;;;16.90;70.60;;;;;;20741888;28;20038;-78
2021/09/22 04:53:28;;;;;;;4.22;1.70;;;16.90;70.60;;;;;;20726265;28;20065;-78
2021/09/22 05:03:48;;;;;;;3.60;1.65;;;16.90;70.60;;;;;;20714166;28;20038;-76
2021/09/22 05:14:07;;;;;;;2.25;1.80;;;16.90;70.70;;;;;;20713302;28;20038;-81
2021/09/22 05:24:28;;;;;;;5.30;2.00;;;16.90;70.80;;;;;;20742819;28;20054;-76
2021/09/22 05:34:51;;;;;;;2.55;1.52;;;16.90;70.80;;;;;;20741428;28;20038;-79
2021/09/22 05:45:14;;;;;;;3.60;2.40;;;16.90;70.80;;;;;;20744145;28;20500;-74
2021/09/22 05:55:33;;;;;;;3.10;1.95;;;16.80;70.90;;;;;;20754666;28;20118;-76
2021/09/22 06:05:54;;;;;;;3.72;1.92;;;16.90;71.00;;;;;;20706461;28;20037;-79
2021/09/22 06:16:23;;;;;;;3.67;2.00;;;16.80;71.00;;;;;;20742705;28;20034;-76
2021/09/22 06:26:24;;;;;;;4.43;2.15;;;16.90;71.10;;;;;;20739330;28;20038;-77
2021/09/22 06:36:25;;;;;;;4.65;2.53;;;16.90;71.20;;;;;;20670631;28;20501;-77
2021/09/22 06:46:26;;;;;;;3.95;2.20;;;16.90;71.20;;;;;;20737478;28;20076;-77
2021/09/22 06:56:29;;;;;;;4.07;2.20;;;16.90;71.20;;;;;;20737027;28;20184;-76
2021/09/22 07:06:30;;;;;;;3.70;2.15;;;17.00;71.40;;;;;;20720050;28;20391;-77
2021/09/22 07:16:30;;;;;;;4.40;2.55;;;16.90;71.40;;;;;;20719064;28;20073;-78
2021/09/22 07:26:33;;;;;;;5.22;2.30;;;16.80;71.40;;;;;;20751497;28;20520;-77
2021/09/22 07:36:35;;;;;;;3.13;1.77;;;16.80;71.40;;;;;;20749450;28;20205;-76
2021/09/22 07:46:37;;;;;;;4.90;2.33;;;16.90;71.50;;;;;;20749769;28;20483;-77
2021/09/22 07:56:39;;;;;;;3.60;2.20;;;16.90;71.60;;;;;;20716377;28;20042;-78
2021/09/22 08:06:39;;;;;;;4.43;2.20;;;16.90;71.50;;;;;;20746516;28;20292;-77
2021/09/22 08:16:40;;;;;;;4.10;2.20;;;16.90;71.60;;;;;;20699643;28;20037;-78
2021/09/22 08:26:42;;;;;;;3.75;1.90;;;16.90;71.60;;;;;;20730797;28;20038;-77
2021/09/22 08:36:44;;;;;;;3.88;1.83;;;16.90;71.70;;;;;;20731444;28;20416;-78
2021/09/22 08:46:45;;;;;;;4.35;2.28;;;16.90;71.70;;;;;;20730024;28;20033;-78
2021/09/22 08:56:47;;;;;;;3.47;1.60;;;16.90;71.70;;;;;;20744891;28;20080;-77
2021/09/22 09:06:53;;;;;;;3.50;1.67;;;16.90;71.70;;;;;;20743599;28;20065;-76
2021/09/22 09:16:58;;;;;;;3.93;1.70;;;16.90;71.80;;;;;;20726476;28;20038;-78
2021/09/22 09:26:59;;;;;;;7.00;3.13;;;16.90;71.90;;;;;;20743290;28;20469;-77
2021/09/22 09:36:59;;;;;;;4.47;2.08;;;16.90;72.00;;;;;;20742217;28;20083;-77
2021/09/22 09:47:08;;;;;;;8.30;2.80;;;16.90;72.20;;;;;;20740770;28;20072;-78
2021/09/22 09:57:11;;;;;;;5.10;2.60;;;16.90;72.40;;;;;;20740848;28;20049;-78
2021/09/22 10:07:11;;;;;;;8.40;2.70;;;17.00;72.50;;;;;;20738903;28;20054;-78
2021/09/22 10:17:12;;;;;;;7.07;2.53;;;17.00;72.70;;;;;;20739177;28;20121;-77
2021/09/22 10:27:13;;;;;;;5.30;2.70;;;17.00;72.80;;;;;;21112609;23;20057;-82
2021/09/22 10:37:36;;;;;;;7.53;2.97;;;17.00;72.80;;;;;;20664612;28;20035;-81
2021/09/22 10:47:40;;;;;;;5.65;2.30;;;17.00;72.80;;;;;;20679955;28;20070;-81
2021/09/22 10:57:43;;;;;;;7.00;2.35;;;17.00;72.80;;;;;;20663239;28;20034;-81
2021/09/22 11:07:53;;;;;;;3.00;1.90;;;17.00;72.80;;;;;;20660605;28;20077;-83
2021/09/22 11:17:56;;;;;;;3.70;1.90;;;17.00;72.70;;;;;;20656866;28;20027;-81
2021/09/22 11:28:09;;;;;;;4.40;1.73;;;17.00;72.60;;;;;;20671502;28;20038;-78
2021/09/22 11:38:10;;;;;;;4.43;2.10;;;17.00;73.00;;;;;;20666105;28;20145;-76
2021/09/22 11:48:14;;;;;;;3.85;1.48;;;17.10;72.30;;;;;;20614562;28;20153;-77
2021/09/22 11:58:18;;;;;;;6.63;2.00;;;17.10;72.10;;;;;;20644989;28;20091;-80
2021/09/22 12:08:19;;;;;;;2.30;1.40;;;17.10;72.00;;;;;;20748452;28;20140;-80
2021/09/22 12:18:21;;;;;;;2.78;1.70;;;17.10;71.90;;;;;;20684485;28;20067;-81
2021/09/22 12:28:24;;;;;;;2.20;1.52;;;17.10;71.80;;;;;;20687207;28;20100;-74
2021/09/22 12:38:26;;;;;;;3.17;1.60;;;17.20;71.80;;;;;;20696745;28;20040;-78
2021/09/22 12:48:27;;;;;;;4.55;1.77;;;17.10;71.70;;;;;;20719857;28;20116;-77
2021/09/22 12:58:28;;;;;;;4.35;1.67;;;17.20;71.70;;;;;;20720574;28;20046;-77
2021/09/22 13:08:29;;;;;;;2.17;1.25;;;17.10;71.60;;;;;;20704882;28;20093;-77
2021/09/22 13:18:31;;;;;;;1.40;1.02;;;17.20;71.60;;;;;;20703932;28;20022;-78
2021/09/22 13:28:32;;;;;;;3.38;1.52;;;17.10;71.60;;;;;;20719984;28;20056;-75
2021/09/22 13:38:33;;;;;;;1.95;1.17;;;17.20;71.60;;;;;;20726824;28;20413;-82
2021/09/22 13:48:34;;;;;;;1.88;1.23;;;17.10;71.50;;;;;;20720073;28;20482;-76
2021/09/22 13:58:35;;;;;;;3.58;1.10;;;17.20;71.60;;;;;;20734789;28;20104;-74
2021/09/22 14:08:36;;;;;;;1.85;1.25;;;17.20;71.40;;;;;;20734301;28;20038;-75
2021/09/22 14:18:37;;;;;;;3.25;1.45;;;17.20;71.40;;;;;;20733561;28;20025;-74
2021/09/22 14:28:37;;;;;;;2.05;0.95;;;17.20;71.30;;;;;;20716545;28;20403;-73
2021/09/22 14:38:38;;;;;;;3.72;1.45;;;17.30;71.30;;;;;;20715823;28;20476;-72
2021/09/22 14:48:39;;;;;;;3.03;1.20;;;17.30;71.20;;;;;;20734193;28;20041;-76
2021/09/22 14:58:39;;;;;;;2.75;1.33;;;17.40;71.10;;;;;;20704520;28;20057;-77
2021/09/22 15:08:40;;;;;;;8.32;2.53;;;17.40;71.00;;;;;;20701720;28;20038;-75
2021/09/22 15:18:41;;;;;;;3.67;1.25;;;17.50;71.00;;;;;;20718784;28;20034;-78
2021/09/22 15:28:41;;;;;;;2.53;1.15;;;17.60;70.90;;;;;;20715344;28;20557;-75
2021/09/22 15:38:42;;;;;;;2.97;1.05;;;17.70;70.80;;;;;;20716002;28;20030;-75
2021/09/22 15:48:42;;;;;;;5.70;1.42;;;17.70;70.70;;;;;;20730555;28;20042;-76
2021/09/22 15:58:43;;;;;;;3.13;1.05;;;17.70;70.60;;;;;;20730912;28;20034;-75
2021/09/22 16:08:45;;;;;;;2.47;1.33;;;17.70;70.50;;;;;;20729850;28;20403;-76
2021/09/22 16:18:45;;;;;;;4.20;1.50;;;17.70;70.50;;;;;;20731722;28;20033;-79
2021/09/22 16:28:46;;;;;;;2.47;1.20;;;17.70;70.60;;;;;;20722808;28;20038;-78
2021/09/22 16:38:47;;;;;;;4.88;1.25;;;17.70;70.60;;;;;;20664462;28;20050;-77
2021/09/22 16:48:50;;;;;;;4.85;1.08;;;17.70;70.70;;;;;;20695599;28;20472;-76
2021/09/22 16:58:56;;;;;;;2.42;1.25;;;17.70;70.90;;;;;;20725779;28;20034;-79
2021/09/22 17:08:56;;;;;;;4.15;0.85;;;17.60;71.00;;;;;;20727974;28;20069;-79
2021/09/22 17:18:58;;;;;;;2.10;1.40;;;17.60;71.10;;;;;;20685717;28;20030;-80
2021/09/22 17:29:03;;;;;;;1.65;1.15;;;17.60;71.20;;;;;;20678096;28;20417;-79
2021/09/22 17:39:07;;;;;;;6.80;1.23;;;17.60;71.30;;;;;;20676727;28;20039;-81
2021/09/22 17:49:08;;;;;;;3.45;1.30;;;17.50;71.40;;;;;;20661952;28;20098;-82
2021/09/22 17:59:09;;;;;;;2.30;1.40;;;17.50;71.50;;;;;;20675899;28;20047;-81
2021/09/22 18:09:11;;;;;;;4.38;1.30;;;17.50;71.60;;;;;;20704975;28;20395;-81
2021/09/22 18:19:13;;;;;;;1.92;1.33;;;17.40;71.60;;;;;;20719602;28;20037;-81
2021/09/22 18:29:14;;;;;;;3.22;1.35;;;17.50;71.70;;;;;;20754627;28;20038;-81
2021/09/22 18:39:19;;;;;;;4.43;1.08;;;17.40;71.70;;;;;;20737942;28;20546;-81
2021/09/22 18:49:20;;;;;;;2.05;1.02;;;17.40;71.70;;;;;;20720595;28;20033;-82
2021/09/22 18:59:21;;;;;;;2.42;1.27;;;17.40;71.70;;;;;;20753317;28;20121;-81
2021/09/22 19:09:23;;;;;;;2.15;1.33;;;17.40;71.80;;;;;;20721820;28;20128;-82
2021/09/22 19:19:24;;;;;;;3.05;1.50;;;17.40;71.70;;;;;;20706237;28;20416;-82
2021/09/22 19:29:25;;;;;;;2.40;1.42;;;17.40;71.70;;;;;;20654069;28;20052;-82
2021/09/22 19:39:28;;;;;;;3.03;1.63;;;17.40;71.80;;;;;;20652410;28;20088;-82
2021/09/22 19:49:29;;;;;;;2.20;1.70;;;17.40;71.80;;;;;;20651939;28;20096;-82
2021/09/22 19:59:34;;;;;;;4.53;1.88;;;17.40;71.80;;;;;;20651397;28;20119;-82
2021/09/22 20:09:38;;;;;;;4.07;1.48;;;17.30;71.70;;;;;;20707055;28;20404;-80
2021/09/22 20:19:39;;;;;;;2.00;1.80;;;17.30;71.80;;;;;;20747545;28;20070;-81
2021/09/22 20:29:40;;;;;;;3.75;1.92;;;17.30;71.80;;;;;;20731097;28;20045;-81
2021/09/22 20:39:42;;;;;;;2.75;1.70;;;17.30;71.70;;;;;;20746831;28;20538;-81
2021/09/22 20:49:44;;;;;;;2.92;1.80;;;17.30;71.70;;;;;;20756167;28;20038;-81
2021/09/22 20:59:45;;;;;;;2.60;1.63;;;17.30;71.80;;;;;;20746416;28;20041;-82
2021/09/22 21:09:46;;;;;;;3.53;2.55;;;17.30;71.70;;;;;;20761646;28;20477;-81
2021/09/22 21:19:49;;;;;;;2.88;1.80;;;17.30;71.70;;;;;;20759906;28;20109;-81
2021/09/22 21:29:50;;;;;;;3.60;2.08;;;17.30;71.80;;;;;;20762024;28;20048;-81
2021/09/22 21:39:54;;;;;;;3.53;2.50;;;17.30;71.80;;;;;;20728098;28;20030;-82
2021/09/22 21:49:56;;;;;;;3.30;2.03;;;17.40;71.80;;;;;;20742573;28;20137;-82
2021/09/22 21:59:57;;;;;;;3.35;2.38;;;17.30;71.80;;;;;;20739915;28;20034;-81
2021/09/22 22:09:58;;;;;;;3.63;2.55;;;17.30;71.80;;;;;;20757603;28;20053;-81
2021/09/22 22:19:59;;;;;;;4.97;2.60;;;17.30;71.80;;;;;;20756991;28;20033;-81
2021/09/22 22:30:03;;;;;;;3.97;2.65;;;17.30;71.80;;;;;;20740692;28;20133;-82
2021/09/22 22:40:05;;;;;;;5.10;2.88;;;17.30;71.80;;;;;;20738669;28;20038;-82
2021/09/22 22:50:07;;;;;;;5.13;2.72;;;17.30;71.80;;;;;;20738124;28;20073;-81
2021/09/22 23:00:08;;;;;;;3.03;2.20;;;17.30;71.80;;;;;;20753938;28;20045;-81
2021/09/22 23:10:13;;;;;;;4.40;2.45;;;17.30;71.80;;;;;;20717959;28;20093;-80
2021/09/22 23:20:48;;;;;;;5.75;3.13;;;17.30;71.80;;;;;;20751928;28;20040;-80
2021/09/22 23:30:38;;;;;;;4.78;2.38;;;17.20;71.70;;;;;;20749108;28;20388;-81
2021/09/22 23:40:38;;;;;;;4.03;2.78;;;17.20;72.40;;;;;;20733347;28;20034;-81
2021/09/22 23:50:43;;;;;;;5.25;2.85;;;17.20;71.70;;;;;;20749850;28;20417;-81
